sensor_id;sensor_type;location;lat;lon;timestamp;pressure;altitude;pressure_sealevel;temperature;humidity
21706;BME280;11014;53.076;18.208;2023-02-12T00:00:16;102853.38;;;5.37;71.02
21706;BME280;11014;53.076;18.208;2023-02-12T00:03:05;102852.97;;;5.32;71.00
21706;BME280;11014;53.076;18.208;2023-02-12T00:05:39;102859.81;;;5.25;71.05
21706;BME280;11014;53.076;18.208;2023-02-12T00:08:18;102867.84;;;5.16;71.28
21706;BME280;11014;53.076;18.208;2023-02-12T00:11:16;102866.00;;;5.07;71.04
21706;BME280;11014;53.076;18.208;2023-02-12T00:13:47;102880.88;;;5.00;71.17
21706;BME280;11014;53.076;18.208;2023-02-12T00:16:23;102879.88;;;4.91;70.81
21706;BME280;11014;53.076;18.208;2023-02-12T00:18:57;102895.56;;;4.85;70.71
21706;BME280;11014;53.076;18.208;2023-02-12T00:21:31;102897.09;;;4.77;70.83
21706;BME280;11014;53.076;18.208;2023-02-12T00:24:02;102906.91;;;4.87;70.83
21706;BME280;11014;53.076;18.208;2023-02-12T00:26:34;102899.03;;;4.66;70.61
21706;BME280;11014;53.076;18.208;2023-02-12T00:29:03;102906.53;;;4.51;70.48
21706;BME280;11014;53.076;18.208;2023-02-12T00:31:32;102910.72;;;4.44;70.69
21706;BME280;11014;53.076;18.208;2023-02-12T00:34:01;102926.28;;;4.39;70.47
21706;BME280;11014;53.076;18.208;2023-02-12T00:36:35;102929.47;;;4.33;70.56
21706;BME280;11014;53.076;18.208;2023-02-12T00:39:11;102938.66;;;4.29;70.74
21706;BME280;11014;53.076;18.208;2023-02-12T00:41:40;102929.28;;;4.25;70.85
21706;BME280;11014;53.076;18.208;2023-02-12T00:44:37;102930.84;;;4.28;71.16
21706;BME280;11014;53.076;18.208;2023-02-12T00:47:07;102946.22;;;4.24;70.94
21706;BME280;11014;53.076;18.208;2023-02-12T00:49:35;102942.00;;;4.22;70.96
21706;BME280;11014;53.076;18.208;2023-02-12T00:52:05;102955.19;;;4.23;71.30
21706;BME280;11014;53.076;18.208;2023-02-12T00:54:33;102951.78;;;4.21;71.24
21706;BME280;11014;53.076;18.208;2023-02-12T00:57:02;102971.97;;;4.24;71.06
21706;BME280;11014;53.076;18.208;2023-02-12T00:59:31;102960.78;;;4.20;70.85
21706;BME280;11014;53.076;18.208;2023-02-12T01:02:01;102967.31;;;4.16;71.06
21706;BME280;11014;53.076;18.208;2023-02-12T01:04:29;102969.69;;;4.09;70.66
21706;BME280;11014;53.076;18.208;2023-02-12T01:06:59;102980.56;;;4.06;70.71
21706;BME280;11014;53.076;18.208;2023-02-12T01:09:29;102983.03;;;3.98;70.55
21706;BME280;11014;53.076;18.208;2023-02-12T01:12:01;102976.78;;;3.88;70.52
21706;BME280;11014;53.076;18.208;2023-02-12T01:14:35;102984.31;;;3.83;70.52
21706;BME280;11014;53.076;18.208;2023-02-12T01:17:20;102990.28;;;3.76;70.59
21706;BME280;11014;53.076;18.208;2023-02-12T01:19:56;102990.09;;;3.68;70.73
21706;BME280;11014;53.076;18.208;2023-02-12T01:22:26;102985.97;;;3.64;70.72
21706;BME280;11014;53.076;18.208;2023-02-12T01:24:54;102980.09;;;3.60;70.79
21706;BME280;11014;53.076;18.208;2023-02-12T01:27:23;102987.72;;;3.53;70.64
21706;BME280;11014;53.076;18.208;2023-02-12T01:29:56;102987.97;;;3.50;70.78
21706;BME280;11014;53.076;18.208;2023-02-12T01:32:26;102991.88;;;3.46;70.79
21706;BME280;11014;53.076;18.208;2023-02-12T01:34:55;102997.44;;;3.43;70.56
21706;BME280;11014;53.076;18.208;2023-02-12T01:37:48;103001.06;;;3.42;70.69
21706;BME280;11014;53.076;18.208;2023-02-12T01:40:32;103007.13;;;3.33;70.51
21706;BME280;11014;53.076;18.208;2023-02-12T01:43:02;102999.78;;;3.26;70.38
21706;BME280;11014;53.076;18.208;2023-02-12T01:45:44;103003.66;;;3.22;70.44
21706;BME280;11014;53.076;18.208;2023-02-12T01:48:16;103004.16;;;3.16;70.64
21706;BME280;11014;53.076;18.208;2023-02-12T01:50:47;103005.25;;;3.13;70.41
21706;BME280;11014;53.076;18.208;2023-02-12T01:53:17;103001.88;;;3.11;70.39
21706;BME280;11014;53.076;18.208;2023-02-12T01:55:50;103007.69;;;3.05;70.39
21706;BME280;11014;53.076;18.208;2023-02-12T01:58:21;103005.38;;;3.00;70.57
21706;BME280;11014;53.076;18.208;2023-02-12T02:00:53;103008.91;;;2.90;70.84
21706;BME280;11014;53.076;18.208;2023-02-12T02:03:28;103007.00;;;2.92;71.18
21706;BME280;11014;53.076;18.208;2023-02-12T02:06:05;103014.09;;;2.91;71.01
21706;BME280;11014;53.076;18.208;2023-02-12T02:08:35;103014.44;;;2.87;71.04
21706;BME280;11014;53.076;18.208;2023-02-12T02:11:04;103018.31;;;2.83;70.77
21706;BME280;11014;53.076;18.208;2023-02-12T02:13:58;103018.56;;;2.80;70.96
21706;BME280;11014;53.076;18.208;2023-02-12T02:23:11;103025.19;;;2.63;70.54
21706;BME280;11014;53.076;18.208;2023-02-12T02:28:58;103039.53;;;2.50;70.46
21706;BME280;11014;53.076;18.208;2023-02-12T02:32:28;103041.72;;;2.45;70.92
21706;BME280;11014;53.076;18.208;2023-02-12T02:35:39;103043.03;;;2.39;70.99
21706;BME280;11014;53.076;18.208;2023-02-12T02:38:21;103039.75;;;2.35;71.07
21706;BME280;11014;53.076;18.208;2023-02-12T02:41:02;103044.59;;;2.30;71.00
21706;BME280;11014;53.076;18.208;2023-02-12T02:43:34;103046.31;;;2.43;70.75
21706;BME280;11014;53.076;18.208;2023-02-12T02:46:10;103053.00;;;2.24;70.45
21706;BME280;11014;53.076;18.208;2023-02-12T02:48:45;103055.41;;;2.16;70.90
21706;BME280;11014;53.076;18.208;2023-02-12T02:51:21;103059.25;;;2.12;70.87
21706;BME280;11014;53.076;18.208;2023-02-12T03:00:49;103065.03;;;2.06;70.75
21706;BME280;11014;53.076;18.208;2023-02-12T03:06:30;103071.03;;;2.08;70.50
21706;BME280;11014;53.076;18.208;2023-02-12T03:09:05;103067.34;;;1.87;70.42
21706;BME280;11014;53.076;18.208;2023-02-12T03:11:37;103077.69;;;1.79;70.72
21706;BME280;11014;53.076;18.208;2023-02-12T03:17:24;103089.59;;;1.73;70.64
21706;BME280;11014;53.076;18.208;2023-02-12T03:20:01;103092.47;;;1.70;70.74
21706;BME280;11014;53.076;18.208;2023-02-12T03:22:35;103090.03;;;1.67;70.84
21706;BME280;11014;53.076;18.208;2023-02-12T03:25:24;103101.47;;;1.68;71.05
21706;BME280;11014;53.076;18.208;2023-02-12T03:28:09;103101.47;;;1.68;71.27
21706;BME280;11014;53.076;18.208;2023-02-12T03:30:47;103106.91;;;1.66;71.22
21706;BME280;11014;53.076;18.208;2023-02-12T03:33:28;103107.00;;;1.65;71.16
21706;BME280;11014;53.076;18.208;2023-02-12T03:39:47;103121.31;;;1.62;70.97
21706;BME280;11014;53.076;18.208;2023-02-12T03:45:41;103122.09;;;1.52;70.83
21706;BME280;11014;53.076;18.208;2023-02-12T03:48:21;103131.13;;;1.49;70.74
21706;BME280;11014;53.076;18.208;2023-02-12T03:53:20;103136.97;;;1.42;70.76
21706;BME280;11014;53.076;18.208;2023-02-12T03:55:52;103131.88;;;1.39;70.77
21706;BME280;11014;53.076;18.208;2023-02-12T03:58:25;103139.19;;;1.35;70.69
21706;BME280;11014;53.076;18.208;2023-02-12T04:00:55;103146.28;;;1.35;70.90
21706;BME280;11014;53.076;18.208;2023-02-12T04:03:24;103149.91;;;1.34;70.91
21706;BME280;11014;53.076;18.208;2023-02-12T04:05:53;103148.22;;;1.33;70.65
21706;BME280;11014;53.076;18.208;2023-02-12T04:08:23;103161.56;;;1.31;70.59
21706;BME280;11014;53.076;18.208;2023-02-12T04:12:05;103165.81;;;1.34;70.67
21706;BME280;11014;53.076;18.208;2023-02-12T04:17:04;103168.34;;;1.23;70.79
21706;BME280;11014;53.076;18.208;2023-02-12T04:23:39;103182.97;;;1.15;70.79
21706;BME280;11014;53.076;18.208;2023-02-12T04:28:35;103186.03;;;1.09;70.65
21706;BME280;11014;53.076;18.208;2023-02-12T04:36:56;103187.22;;;1.05;70.76
21706;BME280;11014;53.076;18.208;2023-02-12T04:39:29;103185.72;;;1.01;70.85
21706;BME280;11014;53.076;18.208;2023-02-12T04:41:59;103186.69;;;1.00;70.67
21706;BME280;11014;53.076;18.208;2023-02-12T04:44:31;103196.63;;;0.97;70.84
21706;BME280;11014;53.076;18.208;2023-02-12T04:47:00;103197.69;;;0.94;70.67
21706;BME280;11014;53.076;18.208;2023-02-12T04:49:29;103196.97;;;0.92;70.69
21706;BME280;11014;53.076;18.208;2023-02-12T04:51:57;103200.47;;;0.93;70.70
21706;BME280;11014;53.076;18.208;2023-02-12T04:54:26;103190.81;;;0.92;70.99
21706;BME280;11014;53.076;18.208;2023-02-12T04:56:54;103203.19;;;0.91;71.04
21706;BME280;11014;53.076;18.208;2023-02-12T04:59:23;103204.13;;;0.90;71.11
21706;BME280;11014;53.076;18.208;2023-02-12T05:01:52;103205.84;;;0.91;70.67
21706;BME280;11014;53.076;18.208;2023-02-12T05:04:20;103201.47;;;0.90;70.98
21706;BME280;11014;53.076;18.208;2023-02-12T05:06:49;103207.00;;;0.87;70.62
21706;BME280;11014;53.076;18.208;2023-02-12T05:09:19;103214.19;;;0.85;70.60
21706;BME280;11014;53.076;18.208;2023-02-12T05:11:48;103208.16;;;0.83;70.55
21706;BME280;11014;53.076;18.208;2023-02-12T05:14:16;103203.81;;;0.82;70.36
21706;BME280;11014;53.076;18.208;2023-02-12T05:16:45;103208.38;;;0.80;70.39
21706;BME280;11014;53.076;18.208;2023-02-12T05:19:14;103215.44;;;0.80;70.31
21706;BME280;11014;53.076;18.208;2023-02-12T05:21:42;103222.56;;;0.79;70.48
21706;BME280;11014;53.076;18.208;2023-02-12T05:24:11;103226.16;;;0.78;70.58
21706;BME280;11014;53.076;18.208;2023-02-12T05:26:40;103238.66;;;0.76;70.11
21706;BME280;11014;53.076;18.208;2023-02-12T05:29:09;103244.13;;;0.73;70.25
21706;BME280;11014;53.076;18.208;2023-02-12T05:31:37;103236.28;;;0.72;70.09
21706;BME280;11014;53.076;18.208;2023-02-12T05:34:09;103245.19;;;0.71;70.14
21706;BME280;11014;53.076;18.208;2023-02-12T05:36:38;103245.19;;;0.71;70.41
21706;BME280;11014;53.076;18.208;2023-02-12T05:39:07;103256.59;;;0.71;70.20
21706;BME280;11014;53.076;18.208;2023-02-12T05:41:35;103251.31;;;0.71;70.60
21706;BME280;11014;53.076;18.208;2023-02-12T05:44:04;103253.13;;;0.71;70.16
21706;BME280;11014;53.076;18.208;2023-02-12T05:46:33;103265.50;;;0.70;70.33
21706;BME280;11014;53.076;18.208;2023-02-12T05:49:02;103268.88;;;0.72;70.32
21706;BME280;11014;53.076;18.208;2023-02-12T05:51:30;103273.97;;;0.75;70.31
21706;BME280;11014;53.076;18.208;2023-02-12T05:54:02;103270.28;;;0.78;70.37
21706;BME280;11014;53.076;18.208;2023-02-12T05:56:34;103269.97;;;0.82;70.38
21706;BME280;11014;53.076;18.208;2023-02-12T05:59:07;103274.78;;;1.02;70.22
21706;BME280;11014;53.076;18.208;2023-02-12T06:01:40;103275.19;;;0.96;70.00
21706;BME280;11014;53.076;18.208;2023-02-12T06:04:15;103282.91;;;0.99;70.15
21706;BME280;11014;53.076;18.208;2023-02-12T06:06:44;103287.81;;;1.05;70.11
21706;BME280;11014;53.076;18.208;2023-02-12T06:09:13;103286.63;;;1.09;70.27
21706;BME280;11014;53.076;18.208;2023-02-12T06:11:42;103294.56;;;1.09;70.20
21706;BME280;11014;53.076;18.208;2023-02-12T06:14:14;103292.88;;;1.08;70.38
21706;BME280;11014;53.076;18.208;2023-02-12T06:16:45;103298.28;;;1.07;70.09
21706;BME280;11014;53.076;18.208;2023-02-12T06:19:14;103295.00;;;1.03;69.94
21706;BME280;11014;53.076;18.208;2023-02-12T06:21:43;103295.22;;;1.00;70.04
21706;BME280;11014;53.076;18.208;2023-02-12T06:24:14;103297.13;;;0.98;70.11
21706;BME280;11014;53.076;18.208;2023-02-12T06:26:42;103299.84;;;0.97;70.11
21706;BME280;11014;53.076;18.208;2023-02-12T06:29:11;103304.28;;;0.96;69.92
21706;BME280;11014;53.076;18.208;2023-02-12T06:31:41;103305.25;;;0.95;69.99
21706;BME280;11014;53.076;18.208;2023-02-12T06:34:11;103299.00;;;0.96;69.92
21706;BME280;11014;53.076;18.208;2023-02-12T06:36:41;103307.72;;;0.98;70.33
21706;BME280;11014;53.076;18.208;2023-02-12T06:39:14;103301.44;;;0.99;70.03
21706;BME280;11014;53.076;18.208;2023-02-12T06:41:43;103302.19;;;1.01;70.26
21706;BME280;11014;53.076;18.208;2023-02-12T06:44:12;103298.59;;;1.02;70.08
21706;BME280;11014;53.076;18.208;2023-02-12T06:46:41;103306.41;;;1.04;70.21
21706;BME280;11014;53.076;18.208;2023-02-12T06:49:11;103310.69;;;1.06;70.11
21706;BME280;11014;53.076;18.208;2023-02-12T06:51:41;103314.91;;;1.09;69.98
21706;BME280;11014;53.076;18.208;2023-02-12T06:54:15;103314.72;;;1.12;70.26
21706;BME280;11014;53.076;18.208;2023-02-12T06:56:44;103318.94;;;1.14;70.08
21706;BME280;11014;53.076;18.208;2023-02-12T06:59:15;103324.88;;;1.18;70.30
21706;BME280;11014;53.076;18.208;2023-02-12T07:01:44;103323.81;;;1.20;70.25
21706;BME280;11014;53.076;18.208;2023-02-12T07:04:13;103330.59;;;1.25;70.25
21706;BME280;11014;53.076;18.208;2023-02-12T07:06:42;103332.06;;;1.29;70.48
21706;BME280;11014;53.076;18.208;2023-02-12T07:09:10;103329.88;;;1.35;70.42
21706;BME280;11014;53.076;18.208;2023-02-12T07:11:40;103324.03;;;1.43;70.27
21706;BME280;11014;53.076;18.208;2023-02-12T07:14:14;103326.16;;;1.50;70.31
21706;BME280;11014;53.076;18.208;2023-02-12T07:16:43;103328.31;;;1.58;70.43
21706;BME280;11014;53.076;18.208;2023-02-12T07:19:14;103332.22;;;1.65;70.67
21706;BME280;11014;53.076;18.208;2023-02-12T07:21:44;103337.81;;;1.73;70.61
21706;BME280;11014;53.076;18.208;2023-02-12T07:24:13;103332.94;;;1.79;70.37
21706;BME280;11014;53.076;18.208;2023-02-12T07:26:42;103345.66;;;1.87;70.30
21706;BME280;11014;53.076;18.208;2023-02-12T07:29:11;103342.47;;;1.95;70.42
21706;BME280;11014;53.076;18.208;2023-02-12T07:31:40;103348.91;;;2.03;70.50
21706;BME280;11014;53.076;18.208;2023-02-12T07:34:09;103358.16;;;2.10;70.58
21706;BME280;11014;53.076;18.208;2023-02-12T07:36:38;103366.41;;;2.18;70.81
21706;BME280;11014;53.076;18.208;2023-02-12T07:39:07;103360.44;;;2.27;70.67
21706;BME280;11014;53.076;18.208;2023-02-12T07:41:37;103369.31;;;2.39;70.85
21706;BME280;11014;53.076;18.208;2023-02-12T07:44:09;103369.53;;;2.49;71.14
21706;BME280;11014;53.076;18.208;2023-02-12T07:46:43;103369.56;;;2.60;71.21
21706;BME280;11014;53.076;18.208;2023-02-12T07:49:19;103366.03;;;2.72;71.35
21706;BME280;11014;53.076;18.208;2023-02-12T07:51:50;103373.09;;;2.84;71.23
21706;BME280;11014;53.076;18.208;2023-02-12T07:54:19;103364.44;;;2.93;71.88
21706;BME280;11014;53.076;18.208;2023-02-12T07:56:47;103368.84;;;3.05;71.88
21706;BME280;11014;53.076;18.208;2023-02-12T07:59:18;103368.88;;;3.16;71.89
21706;BME280;11014;53.076;18.208;2023-02-12T08:01:49;103378.56;;;3.28;71.97
21706;BME280;11014;53.076;18.208;2023-02-12T08:04:23;103372.09;;;3.43;71.83
21706;BME280;11014;53.076;18.208;2023-02-12T08:06:54;103377.44;;;3.54;71.69
21706;BME280;11014;53.076;18.208;2023-02-12T08:09:26;103388.59;;;3.71;72.20
21706;BME280;11014;53.076;18.208;2023-02-12T08:11:55;103368.91;;;3.84;72.31
21706;BME280;11014;53.076;18.208;2023-02-12T08:14:25;103369.63;;;3.97;72.24
21706;BME280;11014;53.076;18.208;2023-02-12T08:16:54;103357.78;;;4.12;72.32
21706;BME280;11014;53.076;18.208;2023-02-12T08:19:23;103363.81;;;4.26;72.46
21706;BME280;11014;53.076;18.208;2023-02-12T08:21:55;103361.72;;;4.40;72.71
21706;BME280;11014;53.076;18.208;2023-02-12T08:24:24;103364.84;;;4.56;72.75
21706;BME280;11014;53.076;18.208;2023-02-12T08:26:53;103369.19;;;4.68;72.86
21706;BME280;11014;53.076;18.208;2023-02-12T08:29:26;103369.84;;;4.82;73.11
21706;BME280;11014;53.076;18.208;2023-02-12T08:32:00;103371.28;;;4.97;72.90
21706;BME280;11014;53.076;18.208;2023-02-12T08:34:32;103387.94;;;5.10;72.99
21706;BME280;11014;53.076;18.208;2023-02-12T08:37:03;103378.78;;;5.23;73.00
21706;BME280;11014;53.076;18.208;2023-02-12T08:39:33;103370.13;;;5.31;72.87
21706;BME280;11014;53.076;18.208;2023-02-12T08:42:03;103378.59;;;5.36;72.73
21706;BME280;11014;53.076;18.208;2023-02-12T08:44:33;103383.75;;;5.49;73.14
21706;BME280;11014;53.076;18.208;2023-02-12T08:47:02;103376.78;;;5.57;72.87
21706;BME280;11014;53.076;18.208;2023-02-12T08:49:31;103374.56;;;5.62;72.93
21706;BME280;11014;53.076;18.208;2023-02-12T08:52:00;103381.50;;;5.74;73.08
21706;BME280;11014;53.076;18.208;2023-02-12T08:54:32;103376.59;;;5.79;72.88
21706;BME280;11014;53.076;18.208;2023-02-12T08:57:01;103376.50;;;5.81;72.34
21706;BME280;11014;53.076;18.208;2023-02-12T08:59:32;103372.41;;;5.97;72.79
21706;BME280;11014;53.076;18.208;2023-02-12T09:02:00;103382.97;;;6.09;72.70
21706;BME280;11014;53.076;18.208;2023-02-12T09:04:31;103378.38;;;6.20;72.66
21706;BME280;11014;53.076;18.208;2023-02-12T09:07:01;103383.31;;;6.25;72.10
21706;BME280;11014;53.076;18.208;2023-02-12T09:09:29;103383.59;;;6.22;71.98
21706;BME280;11014;53.076;18.208;2023-02-12T09:11:58;103392.81;;;6.18;71.60
21706;BME280;11014;53.076;18.208;2023-02-12T09:14:26;103386.44;;;6.30;71.75
21706;BME280;11014;53.076;18.208;2023-02-12T09:16:55;103391.50;;;6.42;72.06
21706;BME280;11014;53.076;18.208;2023-02-12T09:19:25;103388.56;;;6.45;71.83
21706;BME280;11014;53.076;18.208;2023-02-12T09:21:54;103391.56;;;6.52;72.03
21706;BME280;11014;53.076;18.208;2023-02-12T09:24:25;103387.19;;;6.51;71.36
21706;BME280;11014;53.076;18.208;2023-02-12T09:26:55;103391.72;;;6.60;71.74
21706;BME280;11014;53.076;18.208;2023-02-12T09:29:27;103391.88;;;6.68;71.00
21706;BME280;11014;53.076;18.208;2023-02-12T09:31:57;103388.34;;;6.58;71.07
21706;BME280;11014;53.076;18.208;2023-02-12T09:34:27;103386.47;;;6.49;70.06
21706;BME280;11014;53.076;18.208;2023-02-12T09:36:55;103395.50;;;6.67;70.03
21706;BME280;11014;53.076;18.208;2023-02-12T09:39:24;103400.31;;;6.73;70.11
21706;BME280;11014;53.076;18.208;2023-02-12T09:42:16;103394.84;;;6.84;70.22
21706;BME280;11014;53.076;18.208;2023-02-12T09:44:59;103406.34;;;6.75;69.46
21706;BME280;11014;53.076;18.208;2023-02-12T09:50:42;103399.25;;;7.04;69.38
21706;BME280;11014;53.076;18.208;2023-02-12T09:53:17;103397.25;;;7.06;69.26
21706;BME280;11014;53.076;18.208;2023-02-12T09:55:47;103403.84;;;7.41;68.34
21706;BME280;11014;53.076;18.208;2023-02-12T09:58:39;103401.78;;;7.35;67.88
21706;BME280;11014;53.076;18.208;2023-02-12T10:01:14;103406.41;;;7.23;67.39
21706;BME280;11014;53.076;18.208;2023-02-12T10:03:43;103401.91;;;7.04;67.51
21706;BME280;11014;53.076;18.208;2023-02-12T10:06:45;103394.28;;;7.19;67.56
21706;BME280;11014;53.076;18.208;2023-02-12T10:18:38;103398.38;;;7.42;66.44
21706;BME280;11014;53.076;18.208;2023-02-12T10:26:39;103392.72;;;7.55;64.59
21706;BME280;11014;53.076;18.208;2023-02-12T10:29:15;103397.41;;;7.34;64.74
21706;BME280;11014;53.076;18.208;2023-02-12T10:31:48;103386.22;;;7.67;65.74
21706;BME280;11014;53.076;18.208;2023-02-12T10:34:24;103386.47;;;7.83;65.09
21706;BME280;11014;53.076;18.208;2023-02-12T10:36:58;103389.94;;;7.93;65.03
21706;BME280;11014;53.076;18.208;2023-02-12T10:39:44;103391.53;;;7.76;64.41
21706;BME280;11014;53.076;18.208;2023-02-12T10:42:30;103387.03;;;7.77;64.38
21706;BME280;11014;53.076;18.208;2023-02-12T10:45:01;103386.06;;;7.78;64.06
21706;BME280;11014;53.076;18.208;2023-02-12T10:47:29;103374.28;;;7.98;64.23
21706;BME280;11014;53.076;18.208;2023-02-12T10:50:06;103372.34;;;8.00;64.43
21706;BME280;11014;53.076;18.208;2023-02-12T10:52:42;103371.75;;;8.33;63.65
21706;BME280;11014;53.076;18.208;2023-02-12T10:55:32;103372.47;;;8.36;64.02
21706;BME280;11014;53.076;18.208;2023-02-12T10:58:03;103378.91;;;8.43;64.57
21706;BME280;11014;53.076;18.208;2023-02-12T11:00:35;103379.59;;;8.45;63.95
21706;BME280;11014;53.076;18.208;2023-02-12T11:03:15;103384.13;;;8.71;63.41
21706;BME280;11014;53.076;18.208;2023-02-12T11:05:46;103395.19;;;8.59;63.12
21706;BME280;11014;53.076;18.208;2023-02-12T11:08:35;103400.84;;;8.56;62.97
21706;BME280;11014;53.076;18.208;2023-02-12T11:11:30;103398.16;;;8.56;63.23
21706;BME280;11014;53.076;18.208;2023-02-12T11:14:06;103383.69;;;8.49;62.95
21706;BME280;11014;53.076;18.208;2023-02-12T11:16:56;103386.03;;;8.24;62.83
21706;BME280;11014;53.076;18.208;2023-02-12T11:19:28;103374.44;;;8.33;63.80
21706;BME280;11014;53.076;18.208;2023-02-12T11:22:12;103374.34;;;8.53;63.64
21706;BME280;11014;53.076;18.208;2023-02-12T11:24:59;103382.53;;;8.51;63.31
21706;BME280;11014;53.076;18.208;2023-02-12T11:27:31;103369.34;;;8.85;63.20
21706;BME280;11014;53.076;18.208;2023-02-12T11:32:33;103365.88;;;9.10;63.34
21706;BME280;11014;53.076;18.208;2023-02-12T11:35:09;103365.06;;;9.10;62.81
21706;BME280;11014;53.076;18.208;2023-02-12T11:37:41;103359.09;;;8.98;62.64
21706;BME280;11014;53.076;18.208;2023-02-12T11:40:21;103358.63;;;8.85;62.88
21706;BME280;11014;53.076;18.208;2023-02-12T11:42:52;103352.47;;;8.75;63.10
21706;BME280;11014;53.076;18.208;2023-02-12T11:45:25;103351.56;;;8.84;63.41
21706;BME280;11014;53.076;18.208;2023-02-12T11:47:55;103342.44;;;8.94;63.81
21706;BME280;11014;53.076;18.208;2023-02-12T11:50:27;103342.69;;;9.01;63.77
21706;BME280;11014;53.076;18.208;2023-02-12T11:53:02;103350.34;;;8.96;63.80
21706;BME280;11014;53.076;18.208;2023-02-12T11:55:35;103349.41;;;9.05;64.05
21706;BME280;11014;53.076;18.208;2023-02-12T12:00:45;103350.50;;;9.12;63.83
21706;BME280;11014;53.076;18.208;2023-02-12T12:03:20;103348.56;;;9.05;63.83
21706;BME280;11014;53.076;18.208;2023-02-12T12:05:51;103356.91;;;9.19;64.29
21706;BME280;11014;53.076;18.208;2023-02-12T12:08:23;103343.56;;;9.27;64.56
21706;BME280;11014;53.076;18.208;2023-02-12T12:10:54;103331.13;;;9.26;64.00
21706;BME280;11014;53.076;18.208;2023-02-12T12:13:27;103337.66;;;9.24;64.06
21706;BME280;11014;53.076;18.208;2023-02-12T12:16:08;103329.78;;;9.22;63.82
21706;BME280;11014;53.076;18.208;2023-02-12T12:18:58;103335.38;;;9.29;64.68
21706;BME280;11014;53.076;18.208;2023-02-12T12:22:06;103335.03;;;9.32;64.23
21706;BME280;11014;53.076;18.208;2023-02-12T12:27:09;103323.25;;;9.25;64.48
21706;BME280;11014;53.076;18.208;2023-02-12T12:29:54;103318.25;;;9.04;64.66
21706;BME280;11014;53.076;18.208;2023-02-12T12:32:25;103321.44;;;9.08;64.86
21706;BME280;11014;53.076;18.208;2023-02-12T12:34:56;103316.19;;;9.24;65.32
21706;BME280;11014;53.076;18.208;2023-02-12T12:37:30;103310.34;;;9.20;65.06
21706;BME280;11014;53.076;18.208;2023-02-12T12:40:10;103312.22;;;9.28;65.31
21706;BME280;11014;53.076;18.208;2023-02-12T12:45:55;103301.69;;;9.34;65.31
21706;BME280;11014;53.076;18.208;2023-02-12T12:53:46;103293.53;;;9.18;65.36
21706;BME280;11014;53.076;18.208;2023-02-12T12:56:20;103289.69;;;9.21;65.99
21706;BME280;11014;53.076;18.208;2023-02-12T13:09:35;103289.28;;;9.33;65.94
21706;BME280;11014;53.076;18.208;2023-02-12T13:17:18;103290.34;;;9.40;66.17
21706;BME280;11014;53.076;18.208;2023-02-12T13:25:43;103275.09;;;9.41;66.08
21706;BME280;11014;53.076;18.208;2023-02-12T13:28:21;103276.66;;;9.51;66.75
21706;BME280;11014;53.076;18.208;2023-02-12T13:30:51;103282.03;;;9.51;66.35
21706;BME280;11014;53.076;18.208;2023-02-12T13:33:22;103274.47;;;9.47;66.28
21706;BME280;11014;53.076;18.208;2023-02-12T13:35:53;103278.66;;;9.49;66.27
21706;BME280;11014;53.076;18.208;2023-02-12T13:38:34;103274.59;;;9.45;66.15
21706;BME280;11014;53.076;18.208;2023-02-12T13:41:05;103271.19;;;9.35;66.25
21706;BME280;11014;53.076;18.208;2023-02-12T13:43:38;103263.00;;;9.37;66.58
21706;BME280;11014;53.076;18.208;2023-02-12T13:56:49;103250.34;;;9.55;67.10
21706;BME280;11014;53.076;18.208;2023-02-12T14:02:03;103259.56;;;9.52;67.23
21706;BME280;11014;53.076;18.208;2023-02-12T14:04:33;103247.72;;;9.63;67.56
21706;BME280;11014;53.076;18.208;2023-02-12T14:07:08;103257.94;;;9.68;67.68
21706;BME280;11014;53.076;18.208;2023-02-12T14:09:38;103258.66;;;9.70;67.51
21706;BME280;11014;53.076;18.208;2023-02-12T14:12:13;103252.25;;;9.71;67.28
21706;BME280;11014;53.076;18.208;2023-02-12T14:14:46;103253.19;;;9.53;67.36
21706;BME280;11014;53.076;18.208;2023-02-12T14:28:10;103255.41;;;9.58;67.88
21706;BME280;11014;53.076;18.208;2023-02-12T14:30:42;103262.66;;;9.66;68.24
21706;BME280;11014;53.076;18.208;2023-02-12T14:35:43;103254.25;;;9.61;68.24
21706;BME280;11014;53.076;18.208;2023-02-12T14:40:46;103256.97;;;9.69;68.17
21706;BME280;11014;53.076;18.208;2023-02-12T14:43:22;103249.91;;;9.68;68.29
21706;BME280;11014;53.076;18.208;2023-02-12T14:45:54;103239.47;;;9.65;68.34
21706;BME280;11014;53.076;18.208;2023-02-12T14:48:38;103248.72;;;9.70;68.75
21706;BME280;11014;53.076;18.208;2023-02-12T14:51:13;103251.06;;;9.65;68.56
21706;BME280;11014;53.076;18.208;2023-02-12T14:53:41;103243.28;;;9.54;69.04
21706;BME280;11014;53.076;18.208;2023-02-12T14:56:13;103240.50;;;9.64;68.83
21706;BME280;11014;53.076;18.208;2023-02-12T14:58:45;103251.06;;;9.65;69.04
21706;BME280;11014;53.076;18.208;2023-02-12T15:07:08;103250.56;;;9.62;69.40
21706;BME280;11014;53.076;18.208;2023-02-12T15:12:45;103243.31;;;9.62;69.34
21706;BME280;11014;53.076;18.208;2023-02-12T15:15:17;103238.84;;;9.71;69.39
21706;BME280;11014;53.076;18.208;2023-02-12T15:17:58;103238.00;;;9.70;69.16
21706;BME280;11014;53.076;18.208;2023-02-12T15:20:29;103239.59;;;9.81;69.41
21706;BME280;11014;53.076;18.208;2023-02-12T15:23:00;103236.91;;;9.89;69.47
21706;BME280;11014;53.076;18.208;2023-02-12T15:25:31;103232.47;;;9.72;69.74
21706;BME280;11014;53.076;18.208;2023-02-12T15:28:02;103239.91;;;9.78;69.55
21706;BME280;11014;53.076;18.208;2023-02-12T15:30:32;103246.25;;;9.77;69.52
21706;BME280;11014;53.076;18.208;2023-02-12T15:33:02;103239.59;;;9.81;69.60
21706;BME280;11014;53.076;18.208;2023-02-12T15:39:07;103252.34;;;9.87;69.69
21706;BME280;11014;53.076;18.208;2023-02-12T15:41:37;103247.97;;;9.86;69.25
21706;BME280;11014;53.076;18.208;2023-02-12T15:44:28;103246.50;;;9.91;69.53
21706;BME280;11014;53.076;18.208;2023-02-12T15:49:36;103249.31;;;9.90;69.26